sensor_id;sensor_type;location;lat;lon;timestamp;pressure;altitude;pressure_sealevel;temperature;humidity
71666;BME280;59503;53.486;10.196;2022-11-15T00:00:17;101205.72;;;5.00;100.00
71666;BME280;59503;53.486;10.196;2022-11-15T00:02:43;101206.53;;;5.00;100.00
71666;BME280;59503;53.486;10.196;2022-11-15T00:05:08;101195.09;;;4.95;100.00
71666;BME280;59503;53.486;10.196;2022-11-15T00:07:34;101195.75;;;4.92;100.00
71666;BME280;59503;53.486;10.196;2022-11-15T00:09:59;101195.09;;;4.95;100.00
71666;BME280;59503;53.486;10.196;2022-11-15T00:12:27;101194.47;;;4.98;100.00
71666;BME280;59503;53.486;10.196;2022-11-15T00:14:53;101194.16;;;4.99;100.00
71666;BME280;59503;53.486;10.196;2022-11-15T00:17:18;101194.78;;;4.96;100.00
71666;BME280;59503;53.486;10.196;2022-11-15T00:19:43;101190.19;;;4.97;100.00
71666;BME280;59503;53.486;10.196;2022-11-15T00:22:09;101197.44;;;4.88;100.00
71666;BME280;59503;53.486;10.196;2022-11-15T00:24:34;101200.00;;;4.93;100.00
71666;BME280;59503;53.486;10.196;2022-11-15T00:26:59;101204.41;;;4.89;100.00
71666;BME280;59503;53.486;10.196;2022-11-15T00:29:25;101183.97;;;4.79;100.00
71666;BME280;59503;53.486;10.196;2022-11-15T00:31:50;101191.72;;;4.81;100.00
71666;BME280;59503;53.486;10.196;2022-11-15T00:34:16;101203.00;;;4.91;100.00
71666;BME280;59503;53.486;10.196;2022-11-15T00:36:41;101210.44;;;4.86;100.00
71666;BME280;59503;53.486;10.196;2022-11-15T00:39:07;101204.09;;;4.82;100.00
71666;BME280;59503;53.486;10.196;2022-11-15T00:41:32;101204.56;;;4.75;100.00
71666;BME280;59503;53.486;10.196;2022-11-15T00:43:58;101203.25;;;4.73;100.00
71666;BME280;59503;53.486;10.196;2022-11-15T00:46:23;101193.63;;;4.72;100.00
71666;BME280;59503;53.486;10.196;2022-11-15T00:48:48;101193.94;;;4.79;100.00
71666;BME280;59503;53.486;10.196;2022-11-15T00:51:14;101197.09;;;4.81;100.00
71666;BME280;59503;53.486;10.196;2022-11-15T00:53:39;101196.34;;;4.80;100.00
71666;BME280;59503;53.486;10.196;2022-11-15T00:56:05;101205.72;;;4.91;100.00
71666;BME280;59503;53.486;10.196;2022-11-15T00:58:31;101202.88;;;4.96;100.00
71666;BME280;59503;53.486;10.196;2022-11-15T01:00:56;101195.09;;;4.95;100.00
71666;BME280;59503;53.486;10.196;2022-11-15T01:03:21;101199.72;;;5.03;100.00
71666;BME280;59503;53.486;10.196;2022-11-15T01:05:47;101191.16;;;5.01;100.00
71666;BME280;59503;53.486;10.196;2022-11-15T01:08:14;101197.50;;;5.05;100.00
71666;BME280;59503;53.486;10.196;2022-11-15T01:10:40;101192.75;;;5.02;100.00
71666;BME280;59503;53.486;10.196;2022-11-15T01:13:05;101182.75;;;5.02;100.00
71666;BME280;59503;53.486;10.196;2022-11-15T01:15:31;101190.50;;;5.04;100.00
71666;BME280;59503;53.486;10.196;2022-11-15T01:17:56;101186.38;;;4.98;100.00
71666;BME280;59503;53.486;10.196;2022-11-15T01:20:22;101188.13;;;4.94;100.00
71666;BME280;59503;53.486;10.196;2022-11-15T01:22:47;101180.31;;;4.84;100.00
71666;BME280;59503;53.486;10.196;2022-11-15T01:25:12;101183.97;;;4.79;100.00
71666;BME280;59503;53.486;10.196;2022-11-15T01:27:38;101178.69;;;4.66;100.00
71666;BME280;59503;53.486;10.196;2022-11-15T01:30:04;101179.94;;;4.60;100.00
71666;BME280;59503;53.486;10.196;2022-11-15T01:32:29;101183.53;;;4.55;100.00
71666;BME280;59503;53.486;10.196;2022-11-15T01:34:55;101175.47;;;4.47;100.00
71666;BME280;59503;53.486;10.196;2022-11-15T01:37:20;101178.75;;;4.44;100.00
71666;BME280;59503;53.486;10.196;2022-11-15T01:39:46;101161.28;;;4.33;100.00
71666;BME280;59503;53.486;10.196;2022-11-15T01:42:13;101172.09;;;4.41;100.00
71666;BME280;59503;53.486;10.196;2022-11-15T01:44:48;101158.59;;;4.33;100.00
71666;BME280;59503;53.486;10.196;2022-11-15T01:47:27;101162.38;;;4.23;100.00
71666;BME280;59503;53.486;10.196;2022-11-15T01:50:05;101165.31;;;4.13;100.00
71666;BME280;59503;53.486;10.196;2022-11-15T01:52:33;101164.69;;;4.16;100.00
71666;BME280;59503;53.486;10.196;2022-11-15T01:55:10;101149.63;;;4.15;100.00
71666;BME280;59503;53.486;10.196;2022-11-15T01:57:38;101149.06;;;4.27;100.00
71666;BME280;59503;53.486;10.196;2022-11-15T02:00:05;101143.34;;;4.20;100.00
71666;BME280;59503;53.486;10.196;2022-11-15T02:02:32;101147.94;;;4.19;100.00
71666;BME280;59503;53.486;10.196;2022-11-15T02:04:58;101146.00;;;4.11;100.00
71666;BME280;59503;53.486;10.196;2022-11-15T02:07:23;101140.44;;;4.08;100.00
71666;BME280;59503;53.486;10.196;2022-11-15T02:09:50;101126.13;;;3.99;100.00
71666;BME280;59503;53.486;10.196;2022-11-15T02:12:19;101138.50;;;4.00;100.00
71666;BME280;59503;53.486;10.196;2022-11-15T02:14:49;101140.06;;;4.01;100.00
71666;BME280;59503;53.486;10.196;2022-11-15T02:17:31;101147.16;;;3.97;100.00
71666;BME280;59503;53.486;10.196;2022-11-15T02:22:43;101149.63;;;3.85;100.00
71666;BME280;59503;53.486;10.196;2022-11-15T02:25:35;101140.53;;;3.72;100.00
71666;BME280;59503;53.486;10.196;2022-11-15T02:30:55;101150.72;;;3.61;100.00
71666;BME280;59503;53.486;10.196;2022-11-15T02:33:53;101135.28;;;3.67;100.00
71666;BME280;59503;53.486;10.196;2022-11-15T02:37:03;101135.75;;;3.69;100.00
71666;BME280;59503;53.486;10.196;2022-11-15T02:39:32;101130.88;;;3.71;100.00
71666;BME280;59503;53.486;10.196;2022-11-15T02:42:14;101123.28;;;3.73;100.00
71666;BME280;59503;53.486;10.196;2022-11-15T02:45:06;101118.84;;;3.68;100.00
71666;BME280;59503;53.486;10.196;2022-11-15T02:47:40;101107.13;;;3.64;100.00
71666;BME280;59503;53.486;10.196;2022-11-15T02:50:10;101129.72;;;3.63;100.00
71666;BME280;59503;53.486;10.196;2022-11-15T02:52:37;101125.25;;;3.59;100.00
71666;BME280;59503;53.486;10.196;2022-11-15T02:55:03;101133.38;;;3.45;100.00
71666;BME280;59503;53.486;10.196;2022-11-15T02:57:39;101128.19;;;3.49;100.00
71666;BME280;59503;53.486;10.196;2022-11-15T03:00:15;101123.44;;;3.46;100.00
71666;BME280;59503;53.486;10.196;2022-11-15T03:05:42;101120.31;;;3.74;100.00
71666;BME280;59503;53.486;10.196;2022-11-15T03:10:52;101115.31;;;3.90;100.00
71666;BME280;59503;53.486;10.196;2022-11-15T03:13:27;101119.81;;;3.95;100.00
71666;BME280;59503;53.486;10.196;2022-11-15T03:16:06;101125.19;;;3.95;100.00
71666;BME280;59503;53.486;10.196;2022-11-15T03:18:38;101126.25;;;3.94;100.00
71666;BME280;59503;53.486;10.196;2022-11-15T03:21:06;101122.00;;;3.93;100.00
71666;BME280;59503;53.486;10.196;2022-11-15T03:23:34;101124.19;;;3.91;100.00
71666;BME280;59503;53.486;10.196;2022-11-15T03:26:01;101120.25;;;3.88;100.00
71666;BME280;59503;53.486;10.196;2022-11-15T03:28:35;101126.56;;;3.92;100.00
71666;BME280;59503;53.486;10.196;2022-11-15T03:31:02;101124.06;;;3.96;100.00
71666;BME280;59503;53.486;10.196;2022-11-15T03:33:52;101120.88;;;3.94;100.00
71666;BME280;59503;53.486;10.196;2022-11-15T03:36:21;101123.09;;;3.92;100.00
71666;BME280;59503;53.486;10.196;2022-11-15T03:38:47;101114.38;;;3.86;100.00
71666;BME280;59503;53.486;10.196;2022-11-15T03:41:23;101118.63;;;3.87;100.00
71666;BME280;59503;53.486;10.196;2022-11-15T03:43:53;101115.00;;;3.92;100.00
71666;BME280;59503;53.486;10.196;2022-11-15T03:46:27;101115.81;;;3.92;100.00
71666;BME280;59503;53.486;10.196;2022-11-15T03:48:58;101110.25;;;3.89;100.00
71666;BME280;59503;53.486;10.196;2022-11-15T03:51:25;101115.81;;;3.92;100.00
71666;BME280;59503;53.486;10.196;2022-11-15T03:53:51;101120.88;;;3.94;100.00
71666;BME280;59503;53.486;10.196;2022-11-15T03:56:16;101113.63;;;3.94;100.00
71666;BME280;59503;53.486;10.196;2022-11-15T03:58:42;101117.56;;;3.97;100.00
71666;BME280;59503;53.486;10.196;2022-11-15T04:01:07;101102.09;;;4.02;100.00
71666;BME280;59503;53.486;10.196;2022-11-15T04:03:33;101105.97;;;4.10;100.00
71666;BME280;59503;53.486;10.196;2022-11-15T04:05:58;101098.63;;;4.02;100.00
71666;BME280;59503;53.486;10.196;2022-11-15T04:08:23;101097.03;;;4.01;100.00
71666;BME280;59503;53.486;10.196;2022-11-15T04:10:49;101104.44;;;3.95;100.00
71666;BME280;59503;53.486;10.196;2022-11-15T04:13:15;101102.38;;;3.92;100.00
71666;BME280;59503;53.486;10.196;2022-11-15T04:15:40;101098.41;;;3.90;100.00
71666;BME280;59503;53.486;10.196;2022-11-15T04:18:05;101107.31;;;3.99;100.00
71666;BME280;59503;53.486;10.196;2022-11-15T04:20:31;101107.44;;;3.94;100.00
71666;BME280;59503;53.486;10.196;2022-11-15T04:23:22;101100.84;;;4.00;100.00
71666;BME280;59503;53.486;10.196;2022-11-15T04:26:11;101094.09;;;4.11;100.00
71666;BME280;59503;53.486;10.196;2022-11-15T04:28:37;101094.28;;;4.23;100.00
71666;BME280;59503;53.486;10.196;2022-11-15T04:31:22;101100.00;;;4.21;100.00
71666;BME280;59503;53.486;10.196;2022-11-15T04:33:48;101099.31;;;4.16;100.00
71666;BME280;59503;53.486;10.196;2022-11-15T04:36:13;101106.16;;;4.22;100.00
71666;BME280;59503;53.486;10.196;2022-11-15T04:38:57;101105.69;;;4.20;100.00
71666;BME280;59503;53.486;10.196;2022-11-15T04:41:23;101101.13;;;4.29;100.00
71666;BME280;59503;53.486;10.196;2022-11-15T04:43:48;101108.44;;;4.45;100.00
71666;BME280;59503;53.486;10.196;2022-11-15T04:46:14;101104.53;;;4.51;100.00
71666;BME280;59503;53.486;10.196;2022-11-15T04:48:39;101105.19;;;4.57;100.00
71666;BME280;59503;53.486;10.196;2022-11-15T04:51:05;101122.16;;;4.74;100.00
71666;BME280;59503;53.486;10.196;2022-11-15T04:53:30;101107.75;;;4.79;100.00
71666;BME280;59503;53.486;10.196;2022-11-15T04:55:55;101116.03;;;4.91;100.00
71666;BME280;59503;53.486;10.196;2022-11-15T04:58:21;101117.47;;;4.97;100.00
71666;BME280;59503;53.486;10.196;2022-11-15T05:00:46;101113.66;;;5.06;100.00
71666;BME280;59503;53.486;10.196;2022-11-15T05:03:11;101102.41;;;5.13;100.00
71666;BME280;59503;53.486;10.196;2022-11-15T05:05:57;101118.59;;;5.22;100.00
71666;BME280;59503;53.486;10.196;2022-11-15T05:08:23;101112.25;;;5.26;100.00
71666;BME280;59503;53.486;10.196;2022-11-15T05:10:48;101101.94;;;5.28;100.00
71666;BME280;59503;53.486;10.196;2022-11-15T05:13:13;101105.78;;;5.36;100.00
71666;BME280;59503;53.486;10.196;2022-11-15T05:15:39;101098.94;;;5.38;100.00
71666;BME280;59503;53.486;10.196;2022-11-15T05:18:04;101106.53;;;5.45;100.00
71666;BME280;59503;53.486;10.196;2022-11-15T05:20:30;101090.69;;;5.43;100.00
71666;BME280;59503;53.486;10.196;2022-11-15T05:22:55;101085.94;;;5.49;100.00
71666;BME280;59503;53.486;10.196;2022-11-15T05:25:22;101080.84;;;5.47;100.00
71666;BME280;59503;53.486;10.196;2022-11-15T05:27:47;101098.59;;;5.57;100.00
71666;BME280;59503;53.486;10.196;2022-11-15T05:30:14;101104.47;;;5.59;100.00
71666;BME280;59503;53.486;10.196;2022-11-15T05:32:39;101085.13;;;5.57;100.00
71666;BME280;59503;53.486;10.196;2022-11-15T05:35:07;101093.69;;;5.67;100.00
71666;BME280;59503;53.486;10.196;2022-11-15T05:37:34;101080.38;;;5.62;100.00
71666;BME280;59503;53.486;10.196;2022-11-15T05:40:00;101082.25;;;5.70;100.00
71666;BME280;59503;53.486;10.196;2022-11-15T05:42:26;101080.19;;;5.67;100.00
71666;BME280;59503;53.486;10.196;2022-11-15T05:44:52;101090.50;;;5.74;100.00
71666;BME280;59503;53.486;10.196;2022-11-15T05:47:24;101086.66;;;5.75;100.00
71666;BME280;59503;53.486;10.196;2022-11-15T05:49:52;101084.78;;;5.75;100.00
71666;BME280;59503;53.486;10.196;2022-11-15T05:52:22;101077.97;;;5.69;100.00
71666;BME280;59503;53.486;10.196;2022-11-15T05:54:48;101090.34;;;5.70;100.00
71666;BME280;59503;53.486;10.196;2022-11-15T05:57:14;101091.63;;;5.73;100.00
71666;BME280;59503;53.486;10.196;2022-11-15T05:59:40;101090.97;;;5.67;100.00
71666;BME280;59503;53.486;10.196;2022-11-15T06:02:06;101086.72;;;5.58;100.00
71666;BME280;59503;53.486;10.196;2022-11-15T06:04:31;101094.00;;;5.57;100.00
71666;BME280;59503;53.486;10.196;2022-11-15T06:06:58;101096.38;;;5.59;100.00
71666;BME280;59503;53.486;10.196;2022-11-15T06:09:23;101103.19;;;5.56;100.00
71666;BME280;59503;53.486;10.196;2022-11-15T06:11:49;101108.41;;;5.61;100.00
71666;BME280;59503;53.486;10.196;2022-11-15T06:14:14;101096.56;;;5.54;100.00
71666;BME280;59503;53.486;10.196;2022-11-15T06:16:40;101108.91;;;5.63;100.00
71666;BME280;59503;53.486;10.196;2022-11-15T06:19:06;101104.16;;;5.60;100.00
71666;BME280;59503;53.486;10.196;2022-11-15T06:21:32;101114.44;;;5.67;100.00
71666;BME280;59503;53.486;10.196;2022-11-15T06:23:57;101114.78;;;5.65;100.00
71666;BME280;59503;53.486;10.196;2022-11-15T06:26:22;101115.41;;;5.62;100.00
71666;BME280;59503;53.486;10.196;2022-11-15T06:28:48;101119.53;;;5.68;100.00
71666;BME280;59503;53.486;10.196;2022-11-15T06:31:13;101119.53;;;5.68;100.00
71666;BME280;59503;53.486;10.196;2022-11-15T06:33:39;101127.94;;;5.67;100.00
71666;BME280;59503;53.486;10.196;2022-11-15T06:36:07;101132.84;;;5.65;100.00
71666;BME280;59503;53.486;10.196;2022-11-15T06:38:33;101141.75;;;5.65;100.00
71666;BME280;59503;53.486;10.196;2022-11-15T06:41:09;101128.91;;;5.62;100.00
71666;BME280;59503;53.486;10.196;2022-11-15T06:43:36;101127.44;;;5.65;100.00
71666;BME280;59503;53.486;10.196;2022-11-15T06:46:03;101131.91;;;5.69;100.00
71666;BME280;59503;53.486;10.196;2022-11-15T06:48:30;101138.38;;;5.77;100.00
71666;BME280;59503;53.486;10.196;2022-11-15T06:51:00;101134.72;;;5.81;100.00
71666;BME280;59503;53.486;10.196;2022-11-15T06:53:26;101129.84;;;5.83;100.00
71666;BME280;59503;53.486;10.196;2022-11-15T06:55:53;101131.25;;;5.81;100.00
71666;BME280;59503;53.486;10.196;2022-11-15T06:58:20;101135.06;;;5.88;100.00
71666;BME280;59503;53.486;10.196;2022-11-15T07:00:46;101131.88;;;5.95;100.00
71666;BME280;59503;53.486;10.196;2022-11-15T07:03:11;101135.69;;;5.94;100.00
71666;BME280;59503;53.486;10.196;2022-11-15T07:05:37;101131.28;;;5.89;100.00
71666;BME280;59503;53.486;10.196;2022-11-15T07:08:03;101129.31;;;5.81;100.00
71666;BME280;59503;53.486;10.196;2022-11-15T07:10:29;101132.03;;;5.81;100.00
71666;BME280;59503;53.486;10.196;2022-11-15T07:12:55;101143.31;;;5.83;100.00
71666;BME280;59503;53.486;10.196;2022-11-15T07:15:23;101129.31;;;5.81;100.00
71666;BME280;59503;53.486;10.196;2022-11-15T07:17:50;101134.88;;;5.76;100.00
71666;BME280;59503;53.486;10.196;2022-11-15T07:20:17;101132.19;;;5.76;100.00
71666;BME280;59503;53.486;10.196;2022-11-15T07:22:43;101146.63;;;5.80;100.00
71666;BME280;59503;53.486;10.196;2022-11-15T07:25:10;101133.16;;;5.80;100.00
71666;BME280;59503;53.486;10.196;2022-11-15T07:27:36;101148.88;;;5.87;100.00
71666;BME280;59503;53.486;10.196;2022-11-15T07:30:03;101152.06;;;5.89;100.00
71666;BME280;59503;53.486;10.196;2022-11-15T07:32:28;101156.66;;;5.88;100.00
71666;BME280;59503;53.486;10.196;2022-11-15T07:34:54;101153.47;;;5.95;100.00
71666;BME280;59503;53.486;10.196;2022-11-15T07:37:19;101162.84;;;5.97;100.00
71666;BME280;59503;53.486;10.196;2022-11-15T07:39:45;101159.00;;;5.98;100.00
71666;BME280;59503;53.486;10.196;2022-11-15T07:42:10;101151.06;;;6.02;100.00
71666;BME280;59503;53.486;10.196;2022-11-15T07:44:54;101143.28;;;6.00;100.00
71666;BME280;59503;53.486;10.196;2022-11-15T07:47:20;101141.88;;;6.03;100.00
71666;BME280;59503;53.486;10.196;2022-11-15T07:49:46;101142.66;;;6.03;100.00
71666;BME280;59503;53.486;10.196;2022-11-15T07:52:12;101154.88;;;6.09;100.00
71666;BME280;59503;53.486;10.196;2022-11-15T07:54:37;101156.78;;;6.09;100.00
71666;BME280;59503;53.486;10.196;2022-11-15T07:57:03;101162.00;;;6.14;100.00
71666;BME280;59503;53.486;10.196;2022-11-15T07:59:28;101149.78;;;6.16;100.00
71666;BME280;59503;53.486;10.196;2022-11-15T08:01:54;101158.31;;;6.18;100.00
71666;BME280;59503;53.486;10.196;2022-11-15T08:04:19;101154.19;;;6.21;100.00
71666;BME280;59503;53.486;10.196;2022-11-15T08:06:44;101151.19;;;6.14;100.00
71666;BME280;59503;53.486;10.196;2022-11-15T08:09:11;101143.59;;;6.16;100.00
71666;BME280;59503;53.486;10.196;2022-11-15T08:11:36;101143.56;;;6.24;100.00
71666;BME280;59503;53.486;10.196;2022-11-15T08:14:02;101140.38;;;6.22;100.00
71666;BME280;59503;53.486;10.196;2022-11-15T08:16:27;101146.41;;;6.28;100.00
71666;BME280;59503;53.486;10.196;2022-11-15T08:18:52;101149.69;;;6.33;100.00
71666;BME280;59503;53.486;10.196;2022-11-15T08:21:19;101145.44;;;6.32;100.00
71666;BME280;59503;53.486;10.196;2022-11-15T08:23:45;101151.44;;;6.38;100.00
71666;BME280;59503;53.486;10.196;2022-11-15T08:26:11;101146.06;;;6.38;100.00
71666;BME280;59503;53.486;10.196;2022-11-15T08:28:36;101104.16;;;6.23;100.00
71666;BME280;59503;53.486;10.196;2022-11-15T08:31:02;101140.47;;;6.43;100.00
71666;BME280;59503;53.486;10.196;2022-11-15T08:33:28;101150.81;;;6.41;100.00
71666;BME280;59503;53.486;10.196;2022-11-15T08:35:57;101143.75;;;6.49;100.00
71666;BME280;59503;53.486;10.196;2022-11-15T08:38:23;101148.06;;;6.50;100.00
71666;BME280;59503;53.486;10.196;2022-11-15T08:40:50;101139.16;;;6.49;100.00
71666;BME280;59503;53.486;10.196;2022-11-15T08:43:16;101129.16;;;6.50;100.00
71666;BME280;59503;53.486;10.196;2022-11-15T08:45:41;101141.03;;;6.57;100.00
71666;BME280;59503;53.486;10.196;2022-11-15T08:48:07;101135.78;;;6.61;100.00
71666;BME280;59503;53.486;10.196;2022-11-15T08:50:32;101138.28;;;6.66;100.00
71666;BME280;59503;53.486;10.196;2022-11-15T08:53:04;101145.56;;;6.74;100.00
71666;BME280;59503;53.486;10.196;2022-11-15T08:55:30;101137.25;;;6.79;100.00
71666;BME280;59503;53.486;10.196;2022-11-15T08:57:57;101141.00;;;6.95;100.00
71666;BME280;59503;53.486;10.196;2022-11-15T09:00:23;101143.94;;;7.10;100.00
71666;BME280;59503;53.486;10.196;2022-11-15T09:02:48;101138.06;;;7.29;100.00
71666;BME280;59503;53.486;10.196;2022-11-15T09:05:13;101140.81;;;7.41;100.00
71666;BME280;59503;53.486;10.196;2022-11-15T09:07:40;101141.34;;;7.55;100.00
71666;BME280;59503;53.486;10.196;2022-11-15T09:10:06;101143.63;;;7.65;100.00
71666;BME280;59503;53.486;10.196;2022-11-15T09:12:31;101129.78;;;7.67;100.00
71666;BME280;59503;53.486;10.196;2022-11-15T09:14:57;101140.31;;;7.80;100.00
71666;BME280;59503;53.486;10.196;2022-11-15T09:17:23;101148.56;;;7.84;100.00
71666;BME280;59503;53.486;10.196;2022-11-15T09:19:48;101130.16;;;7.77;100.00
71666;BME280;59503;53.486;10.196;2022-11-15T09:22:13;101136.50;;;7.81;100.00
71666;BME280;59503;53.486;10.196;2022-11-15T09:24:39;101137.16;;;7.78;100.00
71666;BME280;59503;53.486;10.196;2022-11-15T09:27:04;101147.44;;;7.85;100.00
71666;BME280;59503;53.486;10.196;2022-11-15T09:29:30;101140.69;;;7.91;100.00
71666;BME280;59503;53.486;10.196;2022-11-15T09:31:55;101149.41;;;7.96;100.00
71666;BME280;59503;53.486;10.196;2022-11-15T09:34:20;101146.50;;;8.01;100.00
71666;BME280;59503;53.486;10.196;2022-11-15T09:36:46;101159.34;;;8.04;100.00
71666;BME280;59503;53.486;10.196;2022-11-15T09:39:12;101152.38;;;8.15;100.00
71666;BME280;59503;53.486;10.196;2022-11-15T09:44:46;101146.69;;;8.29;100.00
71666;BME280;59503;53.486;10.196;2022-11-15T09:47:47;101151.28;;;8.28;100.00
71666;BME280;59503;53.486;10.196;2022-11-15T09:50:59;101148.38;;;8.33;100.00
71666;BME280;59503;53.486;10.196;2022-11-15T09:53:11;101155.84;;;8.48;100.00
71666;BME280;59503;53.486;10.196;2022-11-15T09:55:47;101152.91;;;8.53;100.00
71666;BME280;59503;53.486;10.196;2022-11-15T09:58:23;101152.50;;;8.63;100.00
71666;BME280;59503;53.486;10.196;2022-11-15T10:00:51;101147.50;;;8.65;100.00
71666;BME280;59503;53.486;10.196;2022-11-15T10:03:33;101151.25;;;8.73;100.00
71666;BME280;59503;53.486;10.196;2022-11-15T10:06:01;101131.00;;;8.70;100.00
71666;BME280;59503;53.486;10.196;2022-11-15T10:11:22;101140.16;;;8.90;100.00
71666;BME280;59503;53.486;10.196;2022-11-15T10:13:52;101147.16;;;8.91;100.00
71666;BME280;59503;53.486;10.196;2022-11-15T10:22:29;101134.78;;;9.18;100.00
71666;BME280;59503;53.486;10.196;2022-11-15T10:27:33;101120.50;;;9.05;100.00
71666;BME280;59503;53.486;10.196;2022-11-15T10:29:59;101120.03;;;8.91;100.00
71666;BME280;59503;53.486;10.196;2022-11-15T10:32:25;101118.47;;;8.90;100.00
71666;BME280;59503;53.486;10.196;2022-11-15T10:34:50;101117.00;;;8.93;100.00
71666;BME280;59503;53.486;10.196;2022-11-15T10:37:30;101118.13;;;9.04;100.00
71666;BME280;59503;53.486;10.196;2022-11-15T10:40:17;101102.19;;;9.02;100.00
71666;BME280;59503;53.486;10.196;2022-11-15T10:42:42;101110.97;;;9.11;100.00
71666;BME280;59503;53.486;10.196;2022-11-15T10:45:34;101105.66;;;9.15;100.00
71666;BME280;59503;53.486;10.196;2022-11-15T10:50:47;101102.94;;;9.15;100.00
71666;BME280;59503;53.486;10.196;2022-11-15T10:53:30;101096.13;;;9.21;100.00
71666;BME280;59503;53.486;10.196;2022-11-15T10:56:05;101081.56;;;9.25;100.00
71666;BME280;59503;53.486;10.196;2022-11-15T10:58:33;101085.59;;;9.31;100.00
71666;BME280;59503;53.486;10.196;2022-11-15T11:03:41;101085.66;;;9.47;100.00
71666;BME280;59503;53.486;10.196;2022-11-15T11:06:16;101076.13;;;9.53;100.00
71666;BME280;59503;53.486;10.196;2022-11-15T11:09:02;101079.63;;;9.53;100.00
71666;BME280;59503;53.486;10.196;2022-11-15T11:11:45;101067.06;;;9.61;100.00
71666;BME280;59503;53.486;10.196;2022-11-15T11:14:13;101053.31;;;9.69;100.00
71666;BME280;59503;53.486;10.196;2022-11-15T11:16:51;101066.88;;;9.69;100.00
71666;BME280;59503;53.486;10.196;2022-11-15T11:19:28;101074.25;;;9.69;100.00
71666;BME280;59503;53.486;10.196;2022-11-15T11:24:44;101057.34;;;9.75;100.00
71666;BME280;59503;53.486;10.196;2022-11-15T11:27:43;101049.66;;;9.77;100.00
71666;BME280;59503;53.486;10.196;2022-11-15T11:30:20;101052.13;;;9.82;100.00
71666;BME280;59503;53.486;10.196;2022-11-15T11:46:05;101054.69;;;10.22;100.00
71666;BME280;59503;53.486;10.196;2022-11-15T11:48:46;101043.81;;;10.22;100.00
71666;BME280;59503;53.486;10.196;2022-11-15T11:51:18;101039.44;;;10.33;100.00
71666;BME280;59503;53.486;10.196;2022-11-15T11:56:26;101030.16;;;10.34;100.00
71666;BME280;59503;53.486;10.196;2022-11-15T11:58:55;101030.94;;;10.35;99.89
71666;BME280;59503;53.486;10.196;2022-11-15T12:01:55;101017.78;;;10.37;99.51
71666;BME280;59503;53.486;10.196;2022-11-15T12:04:30;101032.50;;;10.36;99.37
71666;BME280;59503;53.486;10.196;2022-11-15T12:07:13;101030.84;;;10.31;99.29
71666;BME280;59503;53.486;10.196;2022-11-15T12:09:51;101026.91;;;10.29;99.06
71666;BME280;59503;53.486;10.196;2022-11-15T12:12:35;101026.13;;;10.28;99.77
71666;BME280;59503;53.486;10.196;2022-11-15T12:17:36;101028.84;;;10.28;99.48
71666;BME280;59503;53.486;10.196;2022-11-15T12:23:04;101017.44;;;10.38;99.57
71666;BME280;59503;53.486;10.196;2022-11-15T12:25:44;101007.16;;;10.47;99.58
71666;BME280;59503;53.486;10.196;2022-11-15T12:28:30;100997.88;;;10.48;98.93
71666;BME280;59503;53.486;10.196;2022-11-15T12:31:06;101000.03;;;10.58;98.65
71666;BME280;59503;53.486;10.196;2022-11-15T12:33:46;100994.03;;;10.68;98.69
71666;BME280;59503;53.486;10.196;2022-11-15T12:38:52;100998.63;;;10.83;97.59
71666;BME280;59503;53.486;10.196;2022-11-15T12:41:23;100990.75;;;10.78;97.35
71666;BME280;59503;53.486;10.196;2022-11-15T12:43:49;100990.31;;;10.76;97.17
71666;BME280;59503;53.486;10.196;2022-11-15T12:49:00;101001.56;;;10.75;97.96
71666;BME280;59503;53.486;10.196;2022-11-15T12:59:59;100984.88;;;10.76;98.75
71666;BME280;59503;53.486;10.196;2022-11-15T13:02:37;100982.97;;;10.77;99.41
71666;BME280;59503;53.486;10.196;2022-11-15T13:17:50;100973.94;;;10.73;100.00
71666;BME280;59503;53.486;10.196;2022-11-15T13:20:23;100959.63;;;10.76;100.00
71666;BME280;59503;53.486;10.196;2022-11-15T13:30:37;100949.69;;;10.83;100.00
71666;BME280;59503;53.486;10.196;2022-11-15T13:33:15;100931.06;;;10.85;99.80
71666;BME280;59503;53.486;10.196;2022-11-15T13:35:42;100927.22;;;10.86;99.88
71666;BME280;59503;53.486;10.196;2022-11-15T13:38:18;100924.06;;;10.84;99.64
71666;BME280;59503;53.486;10.196;2022-11-15T13:40:45;100922.50;;;10.83;100.00
71666;BME280;59503;53.486;10.196;2022-11-15T13:46:17;100917.16;;;10.90;99.53
71666;BME280;59503;53.486;10.196;2022-11-15T13:48:45;100926.56;;;10.93;99.29
71666;BME280;59503;53.486;10.196;2022-11-15T13:54:19;100914.13;;;10.92;99.48
71666;BME280;59503;53.486;10.196;2022-11-15T13:56:58;100913.75;;;10.93;99.44
71666;BME280;59503;53.486;10.196;2022-11-15T13:59:28;100901.66;;;10.91;99.35
71666;BME280;59503;53.486;10.196;2022-11-15T14:01:58;100921.91;;;10.93;99.05
71666;BME280;59503;53.486;10.196;2022-11-15T14:04:26;100906.28;;;10.90;98.78
71666;BME280;59503;53.486;10.196;2022-11-15T14:06:58;100919.47;;;10.88;99.40
71666;BME280;59503;53.486;10.196;2022-11-15T14:09:39;100922.97;;;10.89;99.66
71666;BME280;59503;53.486;10.196;2022-11-15T14:14:52;100928.34;;;10.85;99.37
71666;BME280;59503;53.486;10.196;2022-11-15T14:17:34;100926.78;;;10.84;99.32
71666;BME280;59503;53.486;10.196;2022-11-15T14:20:00;100915.47;;;10.82;99.60
71666;BME280;59503;53.486;10.196;2022-11-15T14:22:28;100925.50;;;10.78;99.94
71666;BME280;59503;53.486;10.196;2022-11-15T14:25:22;100923.84;;;10.74;100.00
71666;BME280;59503;53.486;10.196;2022-11-15T14:30:35;100901.59;;;10.68;100.00
71666;BME280;59503;53.486;10.196;2022-11-15T14:33:01;100912.81;;;10.67;100.00